createdAt,value
2023-08-18T00:00:26.653Z,15.39
2023-08-18T00:01:26.713Z,15.39
2023-08-18T00:02:26.691Z,15.39
2023-08-18T00:03:26.737Z,15.39
2023-08-18T00:04:26.729Z,15.39
2023-08-18T00:05:26.748Z,15.4
2023-08-18T00:06:26.761Z,15.4
2023-08-18T00:07:27.082Z,15.4
2023-08-18T00:08:26.799Z,15.42
2023-08-18T00:09:26.785Z,15.42
2023-08-18T00:10:26.808Z,15.43
2023-08-18T00:11:26.813Z,15.45
2023-08-18T00:12:26.811Z,15.41
2023-08-18T00:13:26.844Z,15.37
2023-08-18T00:14:26.858Z,15.43
2023-08-18T00:15:26.877Z,15.4
2023-08-18T00:16:26.947Z,15.41
2023-08-18T00:17:27.497Z,15.43
2023-08-18T00:18:26.978Z,15.44
2023-08-18T00:19:26.994Z,15.46
2023-08-18T00:20:27.015Z,15.49
2023-08-18T00:21:27.066Z,15.52
2023-08-18T00:22:27.084Z,15.52
2023-08-18T00:23:27.094Z,15.54
2023-08-18T00:24:26.101Z,15.55
2023-08-18T00:25:26.123Z,15.55
2023-08-18T00:26:26.154Z,15.57
2023-08-18T00:27:26.239Z,15.59
2023-08-18T00:28:26.184Z,15.6
2023-08-18T00:29:26.184Z,15.61
2023-08-18T00:30:26.193Z,15.64
2023-08-18T00:31:26.235Z,15.67
2023-08-18T00:32:26.232Z,15.68
2023-08-18T00:33:26.232Z,15.7
2023-08-18T00:34:26.226Z,15.75
2023-08-18T00:35:26.225Z,15.76
2023-08-18T00:36:26.240Z,15.8
2023-08-18T00:37:26.477Z,15.81
2023-08-18T00:38:26.310Z,15.83
2023-08-18T00:39:26.329Z,15.83
2023-08-18T00:40:26.350Z,15.81
2023-08-18T00:41:26.375Z,15.8
2023-08-18T00:42:26.399Z,15.78
2023-08-18T00:43:26.436Z,15.77
2023-08-18T00:44:26.441Z,15.77
2023-08-18T00:45:26.516Z,15.78
2023-08-18T00:46:26.480Z,15.78
2023-08-18T00:47:27.227Z,15.81
2023-08-18T00:48:26.551Z,15.83
2023-08-18T00:49:26.528Z,15.86
2023-08-18T00:50:26.548Z,15.91
2023-08-18T00:51:26.553Z,15.89
2023-08-18T00:52:26.576Z,15.93
2023-08-18T00:53:26.583Z,15.94
2023-08-18T00:54:26.593Z,15.95
2023-08-18T00:55:26.602Z,15.95
2023-08-18T00:56:26.644Z,15.97
2023-08-18T00:57:26.893Z,15.99
2023-08-18T00:58:26.672Z,15.99
2023-08-18T00:59:26.670Z,16.06
2023-08-18T01:00:26.689Z,16.03
2023-08-18T01:01:26.754Z,16.06
2023-08-18T01:02:26.774Z,16.06
2023-08-18T01:03:26.803Z,16.05
2023-08-18T01:04:26.800Z,16.06
2023-08-18T01:05:26.819Z,16.08
2023-08-18T01:06:26.829Z,16.11
2023-08-18T01:07:27.133Z,16.11
2023-08-18T01:08:26.879Z,16.12
2023-08-18T01:09:26.889Z,16.14
2023-08-18T01:10:26.906Z,16.14
2023-08-18T01:11:26.932Z,16.15
2023-08-18T01:12:26.939Z,16.14
2023-08-18T01:13:26.960Z,16.18
2023-08-18T01:14:26.974Z,16.17
2023-08-18T01:15:26.987Z,16.2
2023-08-18T01:16:27.066Z,16.22
2023-08-18T01:17:27.360Z,16.22
2023-08-18T01:18:27.003Z,16.19
2023-08-18T01:19:27.005Z,16.16
2023-08-18T01:20:27.027Z,16.14
2023-08-18T01:21:27.057Z,16.14
2023-08-18T01:22:27.112Z,16.12
2023-08-18T01:23:27.087Z,16.12
2023-08-18T01:24:26.111Z,16.14
2023-08-18T01:25:26.141Z,16.11
2023-08-18T01:26:26.158Z,16.16
2023-08-18T01:27:26.309Z,16.21
2023-08-18T01:28:26.196Z,16.21
2023-08-18T01:29:26.219Z,16.2
2023-08-18T01:30:26.285Z,16.2
2023-08-18T01:31:26.326Z,16.18
2023-08-18T01:32:26.314Z,16.22
2023-08-18T01:33:26.294Z,16.22
2023-08-18T01:34:26.288Z,16.19
2023-08-18T01:35:26.315Z,16.25
2023-08-18T01:36:26.309Z,16.26
2023-08-18T01:37:26.431Z,16.28
2023-08-18T01:38:26.333Z,16.32
2023-08-18T01:39:26.336Z,16.32
2023-08-18T01:40:26.370Z,16.36
2023-08-18T01:41:26.393Z,16.32
2023-08-18T01:42:26.407Z,16.3
2023-08-18T01:43:26.435Z,16.33
2023-08-18T01:44:26.441Z,16.3
2023-08-18T01:45:26.466Z,16.29
2023-08-18T01:46:26.560Z,16.25
2023-08-18T01:47:26.610Z,16.24
2023-08-18T01:48:26.559Z,16.15
2023-08-18T01:49:26.560Z,16.15
2023-08-18T01:50:26.581Z,16.13
2023-08-18T01:51:26.596Z,16.1
2023-08-18T01:52:26.609Z,16.07
2023-08-18T01:53:26.643Z,16.1
2023-08-18T01:54:26.659Z,16.1
2023-08-18T01:55:26.667Z,16.08
2023-08-18T01:56:26.698Z,16.03
2023-08-18T01:57:26.957Z,15.99
2023-08-18T01:58:26.706Z,15.99
2023-08-18T01:59:26.692Z,15.93
2023-08-18T02:00:26.704Z,15.95
2023-08-18T02:01:26.814Z,15.91
2023-08-18T02:02:26.762Z,15.9
2023-08-18T02:03:26.885Z,15.87
2023-08-18T02:04:26.823Z,15.89
2023-08-18T02:05:26.890Z,15.89
2023-08-18T02:06:26.882Z,15.92
2023-08-18T02:07:27.094Z,15.95
2023-08-18T02:08:26.931Z,15.89
2023-08-18T02:09:26.927Z,15.77
2023-08-18T02:10:26.950Z,15.78
2023-08-18T02:11:26.971Z,15.77
2023-08-18T02:12:26.994Z,15.75
2023-08-18T02:13:27.019Z,15.73
2023-08-18T02:14:27.034Z,15.75
2023-08-18T02:15:27.049Z,15.76
2023-08-18T02:16:27.106Z,15.78
2023-08-18T02:17:27.313Z,15.74
2023-08-18T02:18:26.106Z,15.71
2023-08-18T02:19:26.109Z,15.71
2023-08-18T02:20:26.109Z,15.64
2023-08-18T02:21:26.122Z,15.68
2023-08-18T02:22:26.125Z,15.7
2023-08-18T02:23:26.156Z,15.7
2023-08-18T02:24:26.171Z,15.71
2023-08-18T02:25:26.193Z,15.65
2023-08-18T02:26:26.214Z,15.65
2023-08-18T02:27:26.256Z,15.67
2023-08-18T02:28:26.269Z,15.68
2023-08-18T02:29:26.287Z,15.62
2023-08-18T02:30:26.313Z,15.54
2023-08-18T02:31:26.342Z,15.55
2023-08-18T02:32:26.348Z,15.54
2023-08-18T02:33:26.371Z,15.56
2023-08-18T02:34:26.376Z,15.55
2023-08-18T02:35:26.394Z,15.51
2023-08-18T02:36:26.404Z,15.53
2023-08-18T02:37:26.431Z,15.49
2023-08-18T02:38:26.460Z,15.49
2023-08-18T02:39:26.456Z,15.5
2023-08-18T02:40:26.469Z,15.54
2023-08-18T02:41:26.475Z,15.56
2023-08-18T02:42:26.488Z,15.59
2023-08-18T02:43:26.513Z,15.61
2023-08-18T02:44:26.536Z,15.63
2023-08-18T02:45:26.561Z,15.61
2023-08-18T02:46:26.595Z,15.59
2023-08-18T02:47:26.834Z,15.58
2023-08-18T02:48:26.677Z,15.6
2023-08-18T02:49:26.674Z,15.61
2023-08-18T02:50:26.692Z,15.52
2023-08-18T02:51:26.721Z,15.54
2023-08-18T02:52:26.761Z,15.54
2023-08-18T02:53:26.787Z,15.52
2023-08-18T02:54:26.795Z,15.5
2023-08-18T02:55:26.815Z,15.49
2023-08-18T02:56:26.841Z,15.52
2023-08-18T02:57:27.015Z,15.5
2023-08-18T02:58:26.897Z,15.49
2023-08-18T02:59:26.904Z,15.52
2023-08-18T03:00:26.920Z,15.54
2023-08-18T03:01:26.951Z,15.57
2023-08-18T03:02:26.956Z,15.57
2023-08-18T03:03:26.998Z,15.58
2023-08-18T03:04:26.983Z,15.6
2023-08-18T03:05:27.022Z,15.63
2023-08-18T03:06:27.016Z,15.67
2023-08-18T03:07:27.289Z,15.67
2023-08-18T03:08:27.040Z,15.69
2023-08-18T03:09:27.037Z,15.69
2023-08-18T03:10:27.065Z,15.69
2023-08-18T03:11:26.085Z,15.7
2023-08-18T03:12:26.110Z,15.72
2023-08-18T03:13:26.216Z,15.72
2023-08-18T03:14:26.164Z,15.72
2023-08-18T03:15:26.193Z,15.68
2023-08-18T03:16:26.212Z,15.68
2023-08-18T03:17:26.243Z,15.69
2023-08-18T03:18:26.254Z,15.64
2023-08-18T03:19:26.259Z,15.62
2023-08-18T03:20:26.286Z,15.61
2023-08-18T03:21:26.299Z,15.6
2023-08-18T03:22:26.312Z,15.58
2023-08-18T03:23:26.345Z,15.57
2023-08-18T03:24:26.342Z,15.55
2023-08-18T03:25:26.357Z,15.54
2023-08-18T03:26:26.384Z,15.52
2023-08-18T03:27:26.382Z,15.52
2023-08-18T03:28:26.399Z,15.51
2023-08-18T03:29:26.393Z,15.52
2023-08-18T03:30:26.401Z,15.53
2023-08-18T03:31:26.433Z,15.58
2023-08-18T03:32:26.499Z,15.58
2023-08-18T03:33:26.516Z,15.59
2023-08-18T03:34:26.503Z,15.62
2023-08-18T03:35:26.520Z,15.65
2023-08-18T03:36:26.544Z,15.67
2023-08-18T03:37:26.603Z,15.68
2023-08-18T03:38:26.607Z,15.69
2023-08-18T03:39:26.635Z,15.7
2023-08-18T03:40:26.645Z,15.71
2023-08-18T03:41:26.672Z,15.71
2023-08-18T03:42:26.691Z,15.73
2023-08-18T03:43:26.718Z,15.74
2023-08-18T03:44:26.726Z,15.76
2023-08-18T03:45:26.830Z,15.81
2023-08-18T03:46:26.857Z,15.79
2023-08-18T03:47:27.028Z,15.8
2023-08-18T03:48:26.823Z,15.82
2023-08-18T03:49:26.778Z,15.86
2023-08-18T03:50:26.785Z,15.86
2023-08-18T03:51:26.789Z,15.84
2023-08-18T03:52:26.796Z,15.86
2023-08-18T03:53:26.845Z,15.87
2023-08-18T03:54:26.863Z,15.89
2023-08-18T03:55:26.878Z,15.89
2023-08-18T03:56:26.903Z,15.9
2023-08-18T03:57:27.045Z,15.92
2023-08-18T03:58:26.954Z,15.93
2023-08-18T03:59:27.010Z,15.93
2023-08-18T04:00:27.004Z,15.93
2023-08-18T04:01:27.084Z,15.92
2023-08-18T04:02:27.307Z,15.93
2023-08-18T04:03:27.094Z,15.95
2023-08-18T04:04:26.095Z,15.95
2023-08-18T04:05:26.118Z,15.98
2023-08-18T04:06:26.133Z,15.98
2023-08-18T04:07:26.153Z,16.03
2023-08-18T04:08:26.172Z,16.04
2023-08-18T04:09:26.176Z,16.04
2023-08-18T04:10:26.188Z,16.07
2023-08-18T04:11:26.199Z,16.07
2023-08-18T04:12:26.204Z,16.07
2023-08-18T04:13:26.204Z,16.09
2023-08-18T04:14:26.218Z,16.11
2023-08-18T04:15:26.263Z,16.13
2023-08-18T04:16:26.282Z,16.11
2023-08-18T04:17:26.947Z,16.14
2023-08-18T04:18:26.336Z,16.13
2023-08-18T04:19:26.377Z,16.13
2023-08-18T04:20:26.387Z,16.13
2023-08-18T04:21:26.398Z,16.16
2023-08-18T04:22:26.430Z,16.15
2023-08-18T04:23:26.452Z,16.15
2023-08-18T04:24:26.492Z,16.13
2023-08-18T04:25:26.500Z,16.15
2023-08-18T04:26:26.947Z,16.13
2023-08-18T04:27:26.548Z,16.13
2023-08-18T04:28:26.592Z,16.15
2023-08-18T04:29:26.579Z,16.18
2023-08-18T04:30:26.599Z,16.19
2023-08-18T04:31:26.662Z,16.19
2023-08-18T04:32:26.693Z,16.19
2023-08-18T04:33:26.633Z,16.23
2023-08-18T04:34:26.632Z,16.21
2023-08-18T04:35:26.637Z,16.22
2023-08-18T04:36:26.664Z,16.21
2023-08-18T04:37:26.689Z,16.21
2023-08-18T04:38:26.727Z,16.21
2023-08-18T04:39:26.744Z,16.21
2023-08-18T04:40:26.775Z,16.17
2023-08-18T04:41:26.790Z,16.31
2023-08-18T04:42:27.073Z,16.29
2023-08-18T04:43:26.856Z,16.28
2023-08-18T04:44:26.858Z,16.28
2023-08-18T04:45:26.877Z,16.27
2023-08-18T04:46:26.953Z,16.27
2023-08-18T04:47:26.932Z,16.26
2023-08-18T04:48:26.975Z,16.25
2023-08-18T04:49:26.954Z,16.25
2023-08-18T04:50:26.991Z,16.25
2023-08-18T04:51:26.991Z,16.27
2023-08-18T04:52:27.364Z,16.25
2023-08-18T04:53:27.036Z,16.28
2023-08-18T04:54:27.008Z,16.27
2023-08-18T04:55:27.036Z,16.25
2023-08-18T04:56:27.098Z,16.25
2023-08-18T04:57:27.049Z,16.26
2023-08-18T04:58:27.079Z,16.27
2023-08-18T04:59:26.097Z,16.27
2023-08-18T05:00:26.134Z,16.33
2023-08-18T05:01:26.141Z,16.34
2023-08-18T05:02:26.168Z,16.29
2023-08-18T05:03:26.291Z,16.24
2023-08-18T05:04:26.219Z,16.2
2023-08-18T05:05:26.255Z,16.19
2023-08-18T05:06:26.266Z,16.17
2023-08-18T05:07:26.458Z,16.19
2023-08-18T05:08:26.290Z,16.22
2023-08-18T05:09:26.307Z,16.2
2023-08-18T05:10:26.315Z,16.19
2023-08-18T05:11:26.349Z,16.19
2023-08-18T05:12:26.343Z,16.19
2023-08-18T05:13:26.370Z,16.17
2023-08-18T05:14:26.361Z,16.18
2023-08-18T05:15:26.620Z,16.17
2023-08-18T05:16:26.416Z,16.15
2023-08-18T05:17:26.458Z,16.15
2023-08-18T05:18:26.427Z,16.14
2023-08-18T05:19:26.418Z,16.16
2023-08-18T05:20:26.449Z,16.21
2023-08-18T05:21:26.516Z,16.2
2023-08-18T05:22:26.488Z,16.21
2023-08-18T05:23:26.528Z,16.22
2023-08-18T05:24:26.532Z,16.2
2023-08-18T05:25:27.944Z,16.17
2023-08-18T05:26:26.582Z,16.22
2023-08-18T05:27:26.604Z,16.23
2023-08-18T05:28:26.645Z,16.25
2023-08-18T05:29:26.648Z,16.23
2023-08-18T05:30:26.675Z,16.18
2023-08-18T05:31:26.691Z,16.17
2023-08-18T05:32:26.733Z,16.18
2023-08-18T05:33:26.733Z,16.24
2023-08-18T05:34:26.731Z,16.24
2023-08-18T05:35:28.140Z,16.29
2023-08-18T05:36:26.742Z,16.35
2023-08-18T05:37:26.759Z,16.38
2023-08-18T05:38:26.761Z,16.36
2023-08-18T05:39:26.767Z,16.36
2023-08-18T05:40:26.802Z,16.35
2023-08-18T05:41:26.827Z,16.36
2023-08-18T05:42:27.032Z,16.44
2023-08-18T05:43:26.876Z,16.46
2023-08-18T05:44:26.914Z,16.46
2023-08-18T05:45:26.933Z,16.51
2023-08-18T05:46:26.992Z,16.52
2023-08-18T05:47:27.035Z,16.54
2023-08-18T05:48:26.989Z,16.56
2023-08-18T05:49:27.024Z,16.51
2023-08-18T05:50:27.037Z,16.52
2023-08-18T05:51:27.063Z,16.55
2023-08-18T05:52:27.225Z,16.55
2023-08-18T05:53:27.081Z,16.55
2023-08-18T05:54:26.105Z,16.55
2023-08-18T05:55:26.109Z,16.53
2023-08-18T05:56:26.119Z,16.54
2023-08-18T05:57:26.130Z,16.59
2023-08-18T05:58:26.143Z,16.58
2023-08-18T05:59:26.137Z,16.61
2023-08-18T06:00:26.151Z,16.62
2023-08-18T06:01:26.270Z,16.59
2023-08-18T06:02:26.250Z,16.58
2023-08-18T06:03:26.259Z,16.58
2023-08-18T06:04:26.260Z,16.57
2023-08-18T06:05:26.304Z,16.56
2023-08-18T06:06:26.319Z,16.53
2023-08-18T06:07:26.343Z,16.56
2023-08-18T06:08:26.377Z,16.52
2023-08-18T06:09:26.389Z,16.5
2023-08-18T06:10:26.428Z,16.52
2023-08-18T06:11:26.438Z,16.57
2023-08-18T06:12:26.464Z,16.61
2023-08-18T06:13:26.493Z,16.6
2023-08-18T06:14:26.498Z,16.55
2023-08-18T06:15:26.516Z,16.55
2023-08-18T06:16:26.556Z,16.56
2023-08-18T06:17:26.569Z,16.56
2023-08-18T06:18:26.570Z,16.53
2023-08-18T06:19:26.571Z,16.5
2023-08-18T06:20:26.578Z,16.51
2023-08-18T06:21:26.593Z,16.51
2023-08-18T06:22:26.598Z,16.48
2023-08-18T06:23:26.626Z,16.38
2023-08-18T06:24:26.648Z,16.33
2023-08-18T06:25:26.691Z,16.23
2023-08-18T06:26:26.701Z,16.17
2023-08-18T06:27:26.724Z,16.04
2023-08-18T06:28:26.771Z,15.92
2023-08-18T06:29:26.771Z,15.77
2023-08-18T06:30:26.799Z,15.7
2023-08-18T06:31:26.837Z,15.61
2023-08-18T06:32:27.035Z,15.3
2023-08-18T06:33:26.866Z,15.18
2023-08-18T06:34:26.870Z,15.08
2023-08-18T06:35:26.900Z,15.04
2023-08-18T06:36:26.910Z,15.01
2023-08-18T06:37:26.943Z,14.94
2023-08-18T06:38:26.963Z,14.87
2023-08-18T06:39:26.992Z,14.82
2023-08-18T06:40:26.995Z,14.63
2023-08-18T06:41:27.001Z,14.47
2023-08-18T06:42:27.277Z,14.44
2023-08-18T06:43:27.051Z,14.3
2023-08-18T06:44:27.018Z,14.17
2023-08-18T06:45:27.047Z,14.09
2023-08-18T06:46:27.079Z,13.99
2023-08-18T06:47:26.128Z,13.99
2023-08-18T06:48:26.132Z,13.89
2023-08-18T06:49:26.141Z,13.78
2023-08-18T06:50:26.183Z,13.84
2023-08-18T06:51:26.200Z,13.75
2023-08-18T06:52:26.225Z,13.73
2023-08-18T06:53:26.262Z,13.7
2023-08-18T06:54:26.283Z,13.68
2023-08-18T06:55:31.264Z,13.73
2023-08-18T06:56:26.324Z,13.83
2023-08-18T06:57:26.325Z,13.88
2023-08-18T06:58:26.342Z,13.99
2023-08-18T06:59:26.356Z,13.83
2023-08-18T07:00:26.370Z,13.77
2023-08-18T07:01:26.406Z,13.88
2023-08-18T07:02:26.547Z,13.91
2023-08-18T07:03:26.566Z,13.87
2023-08-18T07:04:26.425Z,13.76
2023-08-18T07:05:26.433Z,13.65
2023-08-18T07:06:26.460Z,13.74
2023-08-18T07:07:26.478Z,13.85
2023-08-18T07:08:26.526Z,13.72
2023-08-18T07:09:26.544Z,13.8
2023-08-18T07:10:26.561Z,13.97
2023-08-18T07:11:26.582Z,14.01
2023-08-18T07:12:26.681Z,13.91
2023-08-18T07:13:26.651Z,13.9
2023-08-18T07:14:26.673Z,13.91
2023-08-18T07:15:26.690Z,13.97
2023-08-18T07:16:26.716Z,13.7
2023-08-18T07:17:26.747Z,13.68
2023-08-18T07:18:26.751Z,13.95
2023-08-18T07:19:26.769Z,13.88
2023-08-18T07:20:26.785Z,13.99
2023-08-18T07:21:26.796Z,14.11
2023-08-18T07:22:27.037Z,14.21
2023-08-18T07:23:26.844Z,14.14
2023-08-18T07:24:29.582Z,14.14
2023-08-18T07:25:26.845Z,14.34
2023-08-18T07:26:26.864Z,14.34
2023-08-18T07:27:26.871Z,14.38
2023-08-18T07:28:26.900Z,14.57
2023-08-18T07:29:26.925Z,14.58
2023-08-18T07:30:26.963Z,14.6
2023-08-18T07:31:26.985Z,14.54
2023-08-18T07:32:27.018Z,14.36
2023-08-18T07:33:27.037Z,14.26
2023-08-18T07:34:27.039Z,14.26
2023-08-18T07:35:28.753Z,14.22
2023-08-18T07:36:26.110Z,13.87
2023-08-18T07:37:51.962Z,13.82
2023-08-18T07:38:26.162Z,13.47
2023-08-18T07:39:26.165Z,13.5
2023-08-18T07:40:26.189Z,13.25
2023-08-18T07:41:26.205Z,12.98
2023-08-18T07:42:26.223Z,12.97
2023-08-18T07:43:26.251Z,13.01
2023-08-18T07:44:26.252Z,12.95
2023-08-18T07:45:26.270Z,12.82
2023-08-18T07:46:26.277Z,12.91
2023-08-18T07:47:26.313Z,12.67
2023-08-18T07:48:26.339Z,12.84
2023-08-18T07:49:26.352Z,13.12
2023-08-18T07:50:26.327Z,13.12
2023-08-18T07:51:26.350Z,13
2023-08-18T07:52:26.365Z,13.21
2023-08-18T07:53:26.389Z,13.29
2023-08-18T07:54:26.407Z,13.47
2023-08-18T07:55:26.436Z,13.48
2023-08-18T07:56:26.470Z,13.58
2023-08-18T07:57:26.487Z,13.63
2023-08-18T07:58:26.518Z,13.75
2023-08-18T07:59:26.524Z,13.74
2023-08-18T08:00:26.540Z,13.78
2023-08-18T08:01:26.582Z,13.97
2023-08-18T08:02:30.549Z,14.07
2023-08-18T08:03:26.762Z,14.22
2023-08-18T08:04:26.599Z,14.4
2023-08-18T08:05:26.621Z,14.46
2023-08-18T08:06:26.623Z,14.68
2023-08-18T08:07:26.629Z,14.47
2023-08-18T08:08:26.820Z,14.63
2023-08-18T08:09:26.644Z,14.56
2023-08-18T08:10:26.692Z,14.78
2023-08-18T08:11:26.702Z,14.59
2023-08-18T08:12:27.014Z,14.63
2023-08-18T08:13:26.754Z,14.7
2023-08-18T08:14:26.788Z,14.91
2023-08-18T08:15:26.837Z,15.03
2023-08-18T08:16:26.918Z,14.62
2023-08-18T08:17:26.860Z,14.62
2023-08-18T08:18:26.890Z,14.63
2023-08-18T08:19:26.930Z,15.05
2023-08-18T08:20:30.267Z,14.97
2023-08-18T08:21:27.006Z,15.21
2023-08-18T08:22:27.032Z,15.39
2023-08-18T08:23:27.019Z,15.43
2023-08-18T08:24:27.035Z,15.56
2023-08-18T08:25:27.114Z,15.72
2023-08-18T08:26:27.081Z,15.46
2023-08-18T08:27:27.110Z,15.62
2023-08-18T08:28:28.763Z,15.74
2023-08-18T08:29:27.144Z,15.59
2023-08-18T08:31:27.190Z,15.64
2023-08-18T08:32:27.223Z,15.64
2023-08-18T08:33:27.203Z,15.88
2023-08-18T08:34:27.233Z,15.77
2023-08-18T08:35:29.148Z,15.73
2023-08-18T08:36:32.044Z,15.93
2023-08-18T08:37:27.246Z,15.95
2023-08-18T08:38:27.275Z,15.8
2023-08-18T08:39:27.303Z,15.9
2023-08-18T08:40:27.366Z,16
2023-08-18T08:41:27.368Z,16.04
2023-08-18T08:42:27.645Z,16.08
2023-08-18T08:43:27.414Z,15.85
2023-08-18T08:44:27.440Z,15.81
2023-08-18T08:45:27.462Z,15.79
2023-08-18T08:46:27.495Z,16.02
2023-08-18T08:47:27.629Z,16.23
2023-08-18T08:48:27.519Z,16.34
2023-08-18T08:49:27.545Z,16.39
2023-08-18T08:50:31.410Z,16.62
2023-08-18T08:51:27.589Z,16.38
2023-08-18T08:52:28.072Z,16.24
2023-08-18T08:53:27.630Z,15.95
2023-08-18T08:54:27.632Z,15.91
2023-08-18T08:55:27.635Z,15.95
2023-08-18T08:56:27.640Z,16.25
2023-08-18T08:57:27.639Z,16.3
2023-08-18T08:58:27.673Z,16.23
2023-08-18T08:59:27.688Z,16.06
2023-08-18T09:00:28.383Z,16.05
2023-08-18T09:01:27.741Z,16.22
2023-08-18T09:02:28.008Z,16.16
2023-08-18T09:03:27.874Z,16.37
2023-08-18T09:04:27.826Z,16.34
2023-08-18T09:05:28.062Z,16.46
2023-08-18T09:06:27.874Z,16.09
2023-08-18T09:07:27.898Z,16.13
2023-08-18T09:08:27.939Z,16.15
2023-08-18T09:09:27.947Z,16.25
2023-08-18T09:10:27.994Z,16.23
2023-08-18T09:11:27.987Z,16.45
2023-08-18T09:13:28.045Z,16.33
2023-08-18T09:14:28.055Z,15.89
2023-08-18T09:15:28.097Z,16
2023-08-18T09:16:28.179Z,16.11
2023-08-18T09:17:29.029Z,16.22
2023-08-18T09:18:27.143Z,16.37
2023-08-18T09:19:27.147Z,16.46
2023-08-18T09:20:29.900Z,16.62
2023-08-18T09:21:27.160Z,16.62
2023-08-18T09:22:27.287Z,16.54
2023-08-18T09:23:27.245Z,16.41
2023-08-18T09:24:27.211Z,16.52
2023-08-18T09:25:28.080Z,16.56
2023-08-18T09:26:27.253Z,16.98
2023-08-18T09:27:27.361Z,17.03
2023-08-18T09:28:27.361Z,17.14
2023-08-18T09:29:27.336Z,16.61
2023-08-18T09:30:27.357Z,16.78
2023-08-18T09:31:27.390Z,16.63
2023-08-18T09:32:27.456Z,16.73
2023-08-18T09:33:27.488Z,16.69
2023-08-18T09:34:27.469Z,16.63
2023-08-18T09:35:27.486Z,16.6
2023-08-18T09:36:27.506Z,16.82
2023-08-18T09:37:27.540Z,17
2023-08-18T09:38:29.537Z,16.9
2023-08-18T09:39:27.572Z,16.51
2023-08-18T09:40:27.620Z,16.51
2023-08-18T09:41:27.609Z,16.61
2023-08-18T09:42:28.064Z,16.53
2023-08-18T09:43:27.643Z,17.06
2023-08-18T09:44:27.641Z,16.9
2023-08-18T09:45:27.906Z,16.88
2023-08-18T09:46:27.769Z,17.1
2023-08-18T09:47:27.690Z,17.14
2023-08-18T09:48:27.695Z,17.17
2023-08-18T09:49:27.743Z,17.43
2023-08-18T09:50:27.746Z,17.35
2023-08-18T09:51:27.763Z,17.17
2023-08-18T09:52:28.160Z,17.12
2023-08-18T09:53:27.819Z,17.4
2023-08-18T09:54:27.847Z,17.25
2023-08-18T09:55:27.859Z,17.28
2023-08-18T09:56:27.896Z,17.4
2023-08-18T09:57:27.906Z,17.6
2023-08-18T09:58:27.940Z,17.39
2023-08-18T09:59:27.979Z,17.19
2023-08-18T10:00:27.969Z,17.46
2023-08-18T10:01:27.987Z,17.42
2023-08-18T10:02:28.265Z,17.22
2023-08-18T10:03:28.064Z,17.41
2023-08-18T10:04:28.019Z,17.68
2023-08-18T10:05:28.019Z,17.99
2023-08-18T10:06:28.017Z,17.73
2023-08-18T10:07:28.025Z,17.66
2023-08-18T10:08:28.059Z,18
2023-08-18T10:09:28.060Z,17.74
2023-08-18T10:10:27.152Z,17.36
2023-08-18T10:11:29.405Z,17.08
2023-08-18T10:12:27.194Z,17.15
2023-08-18T10:13:27.186Z,17.08
2023-08-18T10:14:27.202Z,17.1
2023-08-18T10:15:27.249Z,16.97
2023-08-18T10:16:27.362Z,16.97
2023-08-18T10:17:27.342Z,17.11
2023-08-18T10:18:27.332Z,17.25
2023-08-18T10:19:27.321Z,17.47
2023-08-18T10:20:27.356Z,17.64
2023-08-18T10:21:27.366Z,17.35
2023-08-18T10:22:27.697Z,17.64
2023-08-18T10:23:27.416Z,17.21
2023-08-18T10:24:29.292Z,17.6
2023-08-18T10:25:27.439Z,17.54
2023-08-18T10:26:27.442Z,17.73
2023-08-18T10:27:27.489Z,17.48
2023-08-18T10:28:27.499Z,17.18
2023-08-18T10:29:35.152Z,17.46
2023-08-18T10:30:27.527Z,17.15
2023-08-18T10:31:27.530Z,17.34
2023-08-18T10:32:27.672Z,17.24
2023-08-18T10:33:27.573Z,17.45
2023-08-18T10:34:27.586Z,17.73
2023-08-18T10:35:27.616Z,17.63
2023-08-18T10:36:29.793Z,17.91
2023-08-18T10:37:27.670Z,17.6
2023-08-18T10:38:27.717Z,17.7
2023-08-18T10:39:27.734Z,17.63
2023-08-18T10:40:27.751Z,17.56
2023-08-18T10:41:27.815Z,17.69
2023-08-18T10:42:30.101Z,17.29
2023-08-18T10:43:27.855Z,17.23
2023-08-18T10:44:27.840Z,17.3
2023-08-18T10:45:27.881Z,17.51
2023-08-18T10:46:27.940Z,17.44
2023-08-18T10:47:27.973Z,17.46
2023-08-18T10:48:27.961Z,17.37
2023-08-18T10:49:27.970Z,17.43
2023-08-18T10:50:27.974Z,17.79
2023-08-18T10:51:27.989Z,17.76
2023-08-18T10:52:28.385Z,18.18
2023-08-18T10:53:28.034Z,17.78
2023-08-18T10:54:28.030Z,17.55
2023-08-18T10:55:28.032Z,17.65
2023-08-18T10:56:28.046Z,17.65
2023-08-18T10:57:28.069Z,17.77
2023-08-18T10:58:27.125Z,17.74
2023-08-18T10:59:27.139Z,17.81
2023-08-18T11:00:27.164Z,17.81
2023-08-18T11:01:27.200Z,17.52
2023-08-18T11:02:27.261Z,17.55
2023-08-18T11:03:27.253Z,17.52
2023-08-18T11:04:27.275Z,17.72
2023-08-18T11:05:27.286Z,18.01
2023-08-18T11:06:27.318Z,18.44
2023-08-18T11:07:27.351Z,17.73
2023-08-18T11:08:27.399Z,17.89
2023-08-18T11:09:27.385Z,17.67
2023-08-18T11:10:27.410Z,17.28
2023-08-18T11:11:27.425Z,17.27
2023-08-18T11:12:27.481Z,17.47
2023-08-18T11:13:27.475Z,17.4
2023-08-18T11:14:27.465Z,17.55
2023-08-18T11:15:27.505Z,17.4
2023-08-18T11:16:27.482Z,17.55
2023-08-18T11:17:27.514Z,17.89
2023-08-18T11:18:30.164Z,17.67
2023-08-18T11:19:27.526Z,17.79
2023-08-18T11:20:27.556Z,17.77
2023-08-18T11:21:27.590Z,17.86
2023-08-18T11:22:27.873Z,18.03
2023-08-18T11:23:27.652Z,17.94
2023-08-18T11:24:27.678Z,17.74
2023-08-18T11:25:27.717Z,17.67
2023-08-18T11:26:27.725Z,17.87
2023-08-18T11:27:27.749Z,17.75
2023-08-18T11:28:27.801Z,17.89
2023-08-18T11:29:27.788Z,17.68
2023-08-18T11:30:27.816Z,17.53
2023-08-18T11:31:27.879Z,17.66
2023-08-18T11:32:28.092Z,17.68
2023-08-18T11:33:27.946Z,17.63
2023-08-18T11:34:27.892Z,17.33
2023-08-18T11:35:28.212Z,17.34
2023-08-18T11:36:27.920Z,17.21
2023-08-18T11:37:27.961Z,16.92
2023-08-18T11:38:27.951Z,17.24
2023-08-18T11:39:27.953Z,17.05
2023-08-18T11:40:27.956Z,17.15
2023-08-18T11:41:27.972Z,17.4
2023-08-18T11:42:28.355Z,17.24
2023-08-18T11:43:28.039Z,17.09
2023-08-18T11:44:28.043Z,17.32
2023-08-18T11:45:28.070Z,17.42
2023-08-18T11:46:27.303Z,17.46
2023-08-18T11:47:27.167Z,17.4
2023-08-18T11:48:27.179Z,17.2
2023-08-18T11:49:27.227Z,17.35
2023-08-18T11:50:27.219Z,16.9
2023-08-18T11:51:27.243Z,16.72
2023-08-18T11:52:27.259Z,16.72
2023-08-18T11:53:27.372Z,16.8
2023-08-18T11:54:27.325Z,16.91
2023-08-18T11:55:27.349Z,16.91
2023-08-18T11:56:27.450Z,17.26
2023-08-18T11:57:27.379Z,17.01
2023-08-18T11:58:27.405Z,17.17
2023-08-18T11:59:27.396Z,17.02
2023-08-18T12:00:27.406Z,16.67
2023-08-18T12:01:27.430Z,16.94
2023-08-18T12:02:27.733Z,17
2023-08-18T12:03:27.953Z,17.09
2023-08-18T12:04:27.437Z,17.04
2023-08-18T12:05:27.449Z,16.93
2023-08-18T12:06:27.528Z,17.05
2023-08-18T12:07:27.511Z,16.72
2023-08-18T12:08:27.584Z,16.69
2023-08-18T12:09:27.555Z,16.64
2023-08-18T12:10:27.580Z,16.53
2023-08-18T12:11:27.612Z,16.43
2023-08-18T12:12:27.838Z,16.48
2023-08-18T12:13:27.688Z,16.43
2023-08-18T12:14:27.674Z,16.51
2023-08-18T12:15:27.737Z,16.55
2023-08-18T12:16:27.722Z,16.69
2023-08-18T12:17:27.745Z,16.92
2023-08-18T12:18:27.761Z,17.03
2023-08-18T12:19:27.763Z,16.84
2023-08-18T12:20:27.784Z,16.56
2023-08-18T12:21:27.800Z,16.76
2023-08-18T12:22:27.986Z,16.73
2023-08-18T12:23:27.834Z,16.83
2023-08-18T12:24:27.839Z,16.69
2023-08-18T12:25:27.838Z,16.69
2023-08-18T12:26:27.977Z,16.88
2023-08-18T12:27:27.882Z,17.1
2023-08-18T12:28:27.928Z,16.41
2023-08-18T12:29:27.929Z,16.71
2023-08-18T12:30:27.943Z,16.81
2023-08-18T12:31:28.010Z,16.95
2023-08-18T12:32:28.028Z,16.76
2023-08-18T12:33:28.033Z,16.87
2023-08-18T12:34:28.048Z,16.75
2023-08-18T12:35:28.108Z,16.76
2023-08-18T12:36:27.102Z,16.7
2023-08-18T12:37:29.517Z,16.77
2023-08-18T12:38:27.159Z,16.6
2023-08-18T12:39:27.161Z,16.38
2023-08-18T12:40:27.194Z,16.15
2023-08-18T12:41:27.209Z,16.18
2023-08-18T12:42:27.222Z,16.26
2023-08-18T12:43:27.258Z,16.36
2023-08-18T12:44:27.248Z,16.43
2023-08-18T12:45:27.262Z,16.55
2023-08-18T12:46:27.325Z,16.51
2023-08-18T12:47:27.325Z,16.61
2023-08-18T12:48:27.296Z,16.27
2023-08-18T12:49:27.292Z,16.37
2023-08-18T12:50:27.325Z,16.71
2023-08-18T12:51:27.355Z,16.36
2023-08-18T12:52:27.802Z,16.34
2023-08-18T12:53:27.428Z,16.32
2023-08-18T12:54:27.451Z,16.22
2023-08-18T12:55:27.471Z,16.17
2023-08-18T12:56:27.495Z,16.17
2023-08-18T12:57:27.516Z,16.23